Chetco River@Brookings

Start Stop
DateFlow
CFS
Gauge
Feet
DateFlow
CFS
Gauge
Feet
05/11/2021 17:30488-0.87
05/11/2021 16:30488-0.87
05/11/2021 15:30488-0.87
05/11/2021 14:30493-0.86
05/11/2021 13:30488-0.87
05/11/2021 12:30493-0.86
05/11/2021 11:30488-0.87
05/11/2021 10:30493-0.86
05/11/2021 08:30493-0.86
05/11/2021 07:30493-0.86
05/11/2021 06:30493-0.86
05/11/2021 05:30488-0.87
05/11/2021 03:30493-0.86
05/11/2021 02:30493-0.86
05/11/2021 01:30497-0.85
05/10/2021 21:30497-0.85
05/10/2021 20:30502-0.84
05/10/2021 19:30502-0.84
05/10/2021 18:30507-0.83
05/10/2021 17:30502-0.84
05/10/2021 16:30502-0.84
05/10/2021 15:30507-0.83
05/10/2021 13:30507-0.83
05/10/2021 12:30512-0.82
05/10/2021 09:30512-0.82
05/10/2021 08:30516-0.81
05/10/2021 07:30507-0.83
05/10/2021 05:30507-0.83
05/10/2021 04:30512-0.82
05/09/2021 23:30512-0.82
05/09/2021 22:30516-0.81
05/09/2021 21:30512-0.82
05/09/2021 20:30512-0.82
05/09/2021 19:30521-0.8
05/09/2021 18:30526-0.79
05/09/2021 17:30521-0.8
05/09/2021 16:30526-0.79
05/09/2021 15:30531-0.78
05/09/2021 14:30521-0.8
05/09/2021 13:30531-0.78
05/09/2021 12:30526-0.79
05/09/2021 11:30531-0.78
05/09/2021 10:30526-0.79
05/09/2021 03:30526-0.79
05/09/2021 02:30531-0.78
05/08/2021 21:30531-0.78
05/08/2021 20:30536-0.77
05/08/2021 19:30536-0.77
05/08/2021 18:30541-0.76
05/08/2021 17:30536-0.77
05/08/2021 16:30536-0.77
05/08/2021 15:30545-0.75
05/08/2021 12:30545-0.75
05/08/2021 10:30541-0.76
05/08/2021 09:30545-0.75
05/08/2021 07:30545-0.75
05/08/2021 06:30550-0.74
05/08/2021 05:30550-0.74
05/08/2021 04:30555-0.73
05/08/2021 03:30550-0.74
05/08/2021 02:30555-0.73
05/07/2021 23:30555-0.73
05/07/2021 22:30560-0.72
05/07/2021 21:30560-0.72
05/07/2021 20:30565-0.71
05/07/2021 19:30570-0.7
05/07/2021 18:30575-0.69
05/07/2021 12:30575-0.69
05/07/2021 11:30586-0.67
05/07/2021 10:30580-0.68
05/07/2021 08:30580-0.68
05/07/2021 07:30586-0.67
05/07/2021 06:30591-0.66
05/07/2021 05:30591-0.66
05/07/2021 04:30596-0.65
05/07/2021 02:30596-0.65
05/07/2021 01:30606-0.63
05/07/2021 00:30606-0.63
05/06/2021 23:30601-0.64
05/06/2021 21:30601-0.64
05/06/2021 20:30596-0.65
05/06/2021 19:30591-0.66
05/06/2021 18:30596-0.65
05/06/2021 17:30591-0.66
05/06/2021 14:30591-0.66
05/06/2021 12:30580-0.68
05/06/2021 11:30575-0.69
05/06/2021 10:30580-0.68
05/06/2021 09:30580-0.68
05/06/2021 07:30575-0.69
05/06/2021 05:30575-0.69
05/06/2021 04:30580-0.68
05/06/2021 03:30570-0.7
05/06/2021 02:30575-0.69
05/06/2021 01:30580-0.68
05/06/2021 00:30 -0.68
05/05/2021 23:30591 
05/05/2021 22:30586-0.67
05/05/2021 19:30586-0.67
05/05/2021 17:30591-0.66
05/05/2021 15:30596-0.65
05/05/2021 13:30596 
05/05/2021 12:30591 
05/05/2021 11:30596-0.65
05/05/2021 10:30601-0.64
05/05/2021 05:30601-0.64
05/05/2021 04:30606-0.63
05/05/2021 03:30601-0.64
05/05/2021 02:30606-0.63
05/05/2021 01:30606-0.63
05/05/2021 00:30611-0.62
05/04/2021 23:30601-0.64
05/04/2021 22:30606-0.63
05/04/2021 20:30606-0.63
05/04/2021 19:30616-0.61
05/04/2021 18:30622-0.6
05/04/2021 16:30622-0.6
05/04/2021 15:30627-0.59
05/04/2021 14:30622-0.6
05/04/2021 13:30622-0.6
05/04/2021 12:30627-0.59
05/04/2021 11:30622-0.6
05/04/2021 10:30627-0.59
05/04/2021 09:30627-0.59
05/04/2021 08:30632-0.58
05/04/2021 07:30627-0.59
05/04/2021 06:30627-0.59
05/04/2021 05:30622-0.6
05/04/2021 03:30632-0.58
05/03/2021 22:30632-0.58
05/03/2021 20:30643-0.56
05/03/2021 19:30638-0.57
05/03/2021 18:30648-0.55
05/03/2021 17:30654-0.54
05/03/2021 16:30654-0.54
05/03/2021 15:30643-0.56
05/03/2021 14:30648-0.55
05/03/2021 13:30648-0.55
05/03/2021 12:30654-0.54
05/03/2021 09:30654-0.54
05/03/2021 08:30659-0.53
05/03/2021 07:30654-0.54
05/03/2021 06:30654-0.54
05/03/2021 05:30659-0.53
05/03/2021 03:30654-0.54
05/03/2021 02:30659-0.53
05/03/2021 01:30659-0.53
05/02/2021 23:30665-0.52
05/02/2021 22:30670-0.51
05/02/2021 21:30665-0.52
05/02/2021 20:30659-0.53
05/02/2021 19:30670-0.51
05/02/2021 18:30670-0.51
05/02/2021 17:30681-0.49
05/02/2021 16:30675-0.5
05/02/2021 15:30675-0.5
05/02/2021 14:30681-0.49
05/02/2021 12:30681-0.49
05/02/2021 11:30692-0.47
05/02/2021 10:30692-0.47
05/02/2021 09:30686-0.48
05/02/2021 08:30692-0.47
05/02/2021 05:30692-0.47
05/02/2021 04:30698-0.46
05/02/2021 03:30698-0.46
05/02/2021 02:30703-0.45
05/02/2021 01:30703-0.45
05/02/2021 00:30709-0.44
05/01/2021 22:30709-0.44
05/01/2021 21:30703-0.45
05/01/2021 20:30709-0.44
05/01/2021 19:30714-0.43
05/01/2021 18:30720-0.42
05/01/2021 17:30720-0.42
05/01/2021 16:30726-0.41
05/01/2021 14:30726-0.41
05/01/2021 13:30720-0.42
05/01/2021 12:30726-0.41
05/01/2021 11:30720-0.42
05/01/2021 10:30726-0.41
05/01/2021 09:30731-0.4
05/01/2021 08:30726-0.41
05/01/2021 07:30726-0.41
05/01/2021 06:30731-0.4
05/01/2021 05:30731-0.4
05/01/2021 04:30726-0.41
05/01/2021 03:30731-0.4
04/30/2021 19:30731-0.4
04/30/2021 18:30737-0.39
04/30/2021 17:30737-0.39
04/30/2021 16:30743-0.38
04/30/2021 15:30737-0.39
04/30/2021 14:30743-0.38
04/30/2021 10:30743-0.38
04/30/2021 09:30749-0.37
04/30/2021 08:30760-0.35
04/30/2021 07:30754-0.36
04/30/2021 06:30749-0.37
04/30/2021 05:30749-0.37
04/30/2021 04:30754-0.36
04/30/2021 03:30754-0.36
04/30/2021 02:30760-0.35
04/30/2021 00:30760-0.35
04/29/2021 23:30778-0.32
04/29/2021 22:30778-0.32
04/29/2021 21:30772-0.33
04/29/2021 20:30778-0.32
04/29/2021 19:30784-0.31
04/29/2021 17:30784-0.31
04/29/2021 16:30795-0.29
04/29/2021 15:30795-0.29
04/29/2021 14:30790-0.3
04/29/2021 13:30801-0.28
04/29/2021 12:30795-0.29
04/29/2021 11:30801-0.28
04/29/2021 10:30807-0.27
04/29/2021 08:30807-0.27
04/29/2021 07:30801-0.28
04/29/2021 06:30807-0.27
04/29/2021 05:30819-0.25
04/29/2021 04:30813-0.26
04/29/2021 03:30813-0.26
04/29/2021 02:30819-0.25
04/29/2021 01:30819-0.25
04/29/2021 00:30826-0.24
04/28/2021 23:30826-0.24
04/28/2021 22:30838-0.22
04/28/2021 21:30832-0.23
04/28/2021 20:30838-0.22
04/28/2021 19:30844-0.21
04/28/2021 18:30838-0.22
04/28/2021 17:30850-0.2
04/28/2021 13:30850-0.2
04/28/2021 12:30855-0.19
04/28/2021 11:30855-0.19
04/28/2021 10:30865-0.17
04/28/2021 09:30865-0.17
04/28/2021 08:30860-0.18
04/28/2021 07:30860-0.18
04/28/2021 06:30870-0.16
04/28/2021 05:30865-0.17
04/28/2021 04:30865-0.17
04/28/2021 03:30875-0.15
04/28/2021 01:30875-0.15
04/28/2021 00:30885-0.13
04/27/2021 23:30880-0.14
04/27/2021 22:30890-0.12
04/27/2021 20:30890-0.12
04/27/2021 19:30895-0.11
04/27/2021 18:30890-0.12
04/27/2021 17:30900-0.1
04/27/2021 16:30900-0.1
04/27/2021 15:30910-0.08
04/27/2021 14:30905-0.09
04/27/2021 13:30900-0.1
04/27/2021 12:30910-0.08
04/27/2021 11:30910-0.08
04/27/2021 10:30915-0.07
04/27/2021 09:30915-0.07
04/27/2021 08:30920-0.06
04/27/2021 06:30920-0.06
04/27/2021 05:30925-0.05
04/27/2021 04:30930-0.04
04/27/2021 03:30935-0.03
04/27/2021 02:30930-0.04
04/27/2021 01:30945-0.01
04/27/2021 00:309500
04/26/2021 23:30945-0.01
04/26/2021 22:309550.01
04/26/2021 21:309550.01
04/26/2021 20:309600.02
04/26/2021 18:309800.06
04/26/2021 17:309850.07
04/26/2021 16:309950.09
04/26/2021 15:3010000.1
04/26/2021 14:3010100.12
04/26/2021 13:3010200.13
04/26/2021 12:3010500.17
04/26/2021 11:3010400.16
04/26/2021 10:3010700.2
04/26/2021 09:3010600.19
04/26/2021 08:3010700.21
04/26/2021 07:3010700.2
04/26/2021 06:3010900.24
04/26/2021 05:3011000.25
04/26/2021 04:3011100.26
04/26/2021 03:30 0.27
04/26/2021 02:3011100.26
04/26/2021 01:3011300.29
04/26/2021 00:30 0.29
04/25/2021 23:3011300.3
04/25/2021 22:3011500.32
04/25/2021 21:3011300.3
04/25/2021 20:3011500.32
04/25/2021 19:3011700.35
04/25/2021 18:3011800.36
04/25/2021 17:3012100.41
04/25/2021 16:3012300.44
04/25/2021 15:3012500.47
04/25/2021 14:3012600.48
04/25/2021 13:3012400.45
04/25/2021 12:3012200.43
04/25/2021 11:3011800.37
04/25/2021 10:3011600.34
04/25/2021 09:3011000.25
04/25/2021 08:3010600.19
04/25/2021 07:3010100.11
04/25/2021 06:309800.06
04/25/2021 05:309650.03
04/25/2021 04:30930-0.04
04/25/2021 03:30920-0.06
04/25/2021 02:30910-0.08
04/25/2021 01:30875-0.15
04/25/2021 00:30865-0.17
04/24/2021 23:30865-0.17
04/24/2021 21:30844-0.21
04/24/2021 20:30838-0.22
04/24/2021 19:30832-0.23
04/24/2021 18:30813-0.26
04/24/2021 17:30807-0.27
04/24/2021 16:30790-0.3
04/24/2021 15:30772-0.33
04/24/2021 14:30772-0.33
04/24/2021 13:30760-0.35
04/24/2021 12:30760-0.35
04/24/2021 11:30749-0.37
04/24/2021 10:30749-0.37
04/24/2021 09:30743-0.38
04/24/2021 08:30737-0.39
04/24/2021 07:30737-0.39
04/24/2021 06:30731-0.4
04/24/2021 04:30737-0.39
04/24/2021 03:30737-0.39
04/24/2021 02:30731-0.4
04/24/2021 01:30737-0.39
04/24/2021 00:30743-0.38
04/23/2021 23:30737-0.39
04/23/2021 22:30737-0.39
04/23/2021 21:30743-0.38
04/23/2021 20:30737-0.39
04/23/2021 17:30737-0.39
04/23/2021 16:30743-0.38
04/23/2021 15:30743-0.38
04/23/2021 14:30737-0.39
04/23/2021 13:30743-0.38
04/23/2021 12:30749-0.37
04/23/2021 11:30743-0.38
04/23/2021 10:30749-0.37
04/23/2021 09:30754-0.36
04/23/2021 08:30749-0.37
04/23/2021 07:30760-0.35
04/23/2021 06:30749-0.37
04/23/2021 05:30754-0.36
04/23/2021 04:30754-0.36
04/23/2021 03:30760-0.35
04/23/2021 02:30760-0.35
04/23/2021 01:30766-0.34
04/23/2021 00:30760-0.35
04/22/2021 23:30760-0.35
04/22/2021 22:30766-0.34
04/22/2021 21:30766-0.34
04/22/2021 20:30772-0.33
04/22/2021 19:30778-0.32
04/22/2021 18:30784-0.31
04/22/2021 17:30778-0.32
04/22/2021 16:30784-0.31
04/22/2021 15:30778-0.32
04/22/2021 14:30778-0.32
04/22/2021 13:30784-0.31
04/22/2021 10:30784-0.31
04/22/2021 09:30790-0.3
04/22/2021 07:30790-0.3
04/22/2021 06:30795-0.29
04/22/2021 05:30790-0.3
04/22/2021 04:30790-0.3
04/22/2021 03:30795-0.29
04/22/2021 00:30795-0.29
04/21/2021 23:30801-0.28
04/21/2021 22:30795-0.29
04/21/2021 21:30801-0.28
04/21/2021 20:30801-0.28
04/21/2021 19:30813-0.26
04/21/2021 17:30813-0.26
04/21/2021 16:30819-0.25
04/21/2021 15:30819-0.25
04/21/2021 14:30826-0.24
04/21/2021 13:30819-0.25
04/21/2021 12:30826-0.24
04/21/2021 11:30832-0.23
04/21/2021 10:30826-0.24
04/21/2021 09:30832-0.23
04/21/2021 08:30819-0.25
04/21/2021 07:30819-0.25
04/21/2021 06:30826-0.24
04/21/2021 05:30826-0.24
04/21/2021 04:30832-0.23
04/21/2021 03:30826-0.24
04/21/2021 02:30832-0.23
04/21/2021 01:30832-0.23
04/21/2021 00:30838-0.22
04/20/2021 23:30838-0.22
04/20/2021 22:30844-0.21
04/20/2021 21:30838-0.22
04/20/2021 20:30844-0.21
04/20/2021 19:30855-0.19
04/20/2021 18:30850-0.2
04/20/2021 17:30844-0.21
04/20/2021 16:30855-0.19
04/20/2021 15:30850-0.2
04/20/2021 14:30860-0.18
04/20/2021 13:30860-0.18
04/20/2021 12:30855-0.19
04/20/2021 11:30855-0.19
04/20/2021 10:30860-0.18
04/20/2021 09:30855-0.19
04/20/2021 07:30855-0.19
04/20/2021 06:30860-0.18
04/20/2021 05:30860-0.18
04/20/2021 04:30865-0.17
04/20/2021 03:30860-0.18
04/20/2021 02:30865-0.17
04/20/2021 01:30870-0.16
04/20/2021 00:30865-0.17
04/19/2021 22:30870-0.16
04/19/2021 21:30870-0.16
04/19/2021 20:30875-0.15
04/19/2021 19:30880-0.14
04/19/2021 18:30870-0.16
04/19/2021 17:30875-0.15
04/19/2021 15:30875-0.15
04/19/2021 14:30880-0.14
04/19/2021 13:30880-0.14
04/19/2021 12:30875-0.15
04/19/2021 10:30875-0.15
04/19/2021 09:30870-0.16
04/19/2021 08:30870-0.16
04/19/2021 07:30875-0.15
04/19/2021 06:30870-0.16
04/19/2021 05:30870-0.16
04/19/2021 04:30875-0.15
04/19/2021 03:30875-0.15
04/19/2021 02:30885-0.13
04/19/2021 01:30880-0.14
04/19/2021 00:30880-0.14
04/18/2021 23:30885-0.13
04/18/2021 21:30885-0.13
04/18/2021 20:30880-0.14
04/18/2021 19:30890-0.12
04/18/2021 18:30880-0.14
04/18/2021 17:30890-0.12
04/18/2021 16:30890-0.12
04/18/2021 15:30885-0.13
04/18/2021 14:30895-0.11
04/18/2021 13:30890-0.12
04/18/2021 12:30880-0.14
04/18/2021 11:30890-0.12
04/18/2021 10:30885-0.13
04/18/2021 09:30895-0.11
04/18/2021 08:30885-0.13
04/18/2021 07:30890-0.12
04/18/2021 05:30890-0.12
04/18/2021 04:30895-0.11
04/18/2021 01:30895-0.11
04/18/2021 00:30890-0.12
04/17/2021 23:30900-0.1
04/17/2021 20:30900-0.1
04/17/2021 19:30905-0.09
04/17/2021 18:30900-0.1
04/17/2021 17:30900-0.1
04/17/2021 16:30905-0.09
04/17/2021 14:30905-0.09
04/17/2021 13:30900-0.1
04/17/2021 12:30905-0.09
04/17/2021 11:30905-0.09
04/17/2021 10:30910-0.08
04/17/2021 09:30900-0.1
04/17/2021 08:30905-0.09
04/17/2021 06:30905-0.09
04/17/2021 05:30900-0.1
04/17/2021 03:30900-0.1
04/17/2021 02:30915-0.07
04/16/2021 23:30915-0.07
04/16/2021 22:30925-0.05
04/16/2021 21:30915-0.07
04/16/2021 20:30915-0.07
04/16/2021 19:30920-0.06
04/16/2021 18:30920-0.06
04/16/2021 17:30925-0.05
04/16/2021 16:30920-0.06
04/16/2021 15:30925-0.05
04/16/2021 14:30920-0.06
04/16/2021 13:30925-0.05
04/16/2021 12:30925-0.05
04/16/2021 11:30930-0.04
04/16/2021 10:30930-0.04
04/16/2021 09:30935-0.03
04/16/2021 08:30925-0.05
04/16/2021 07:30930-0.04
04/16/2021 06:30925-0.05
04/16/2021 05:30930-0.04
04/16/2021 04:30930-0.04
04/16/2021 03:30935-0.03
04/16/2021 02:30930-0.04
04/16/2021 00:30940-0.02
04/15/2021 23:309500
04/15/2021 22:30935-0.03
04/15/2021 21:30935-0.03
04/15/2021 20:309500
04/15/2021 19:30940-0.02
04/15/2021 18:30940-0.02
04/15/2021 17:309500
04/15/2021 16:309500
04/15/2021 15:30945-0.01
04/15/2021 14:309500
04/15/2021 12:309500
04/15/2021 11:309550.01
04/15/2021 10:309600.02
04/15/2021 09:309550.01
04/15/2021 06:309550.01
04/15/2021 05:309650.03
04/15/2021 04:309600.02
04/15/2021 03:309600.02
04/15/2021 02:309550.01
04/15/2021 01:309700.04
04/15/2021 00:309600.02
04/14/2021 23:309700.04
04/14/2021 22:309650.03
04/14/2021 21:309700.04
04/14/2021 20:309750.05
04/14/2021 18:309750.05
04/14/2021 17:309800.06
04/14/2021 16:309750.05
04/14/2021 15:309850.07
04/14/2021 14:309800.06
04/14/2021 13:309900.08
04/14/2021 12:309900.08
04/14/2021 11:309950.09
04/14/2021 10:309850.07
04/14/2021 09:309850.07
04/14/2021 08:309900.08
04/14/2021 07:309850.07
04/14/2021 06:309900.08
04/14/2021 01:309900.08
04/14/2021 00:309950.09
04/13/2021 23:3010000.1
04/13/2021 22:3010000.1
04/13/2021 21:3010100.11
04/13/2021 20:309900.08
04/13/2021 19:3010100.12
04/13/2021 18:3010000.1
04/13/2021 17:3010100.12
04/13/2021 16:30 0.11
04/13/2021 15:30 0.12
04/13/2021 13:3010100.12
04/13/2021 12:3010200.13
04/13/2021 11:3010300.14
04/13/2021 10:3010100.12
04/13/2021 09:3010200.13
04/13/2021 08:3010100.11
04/13/2021 07:3010100.12
04/13/2021 06:3010200.13
04/13/2021 05:3010300.14
04/13/2021 04:3010000.1
04/13/2021 03:3010300.14
04/13/2021 02:3010200.13
04/13/2021 01:3010300.14
04/13/2021 00:30 0.15
04/12/2021 22:3010300.15
04/12/2021 21:3010400.16
04/12/2021 19:3010400.16
04/12/2021 18:3010300.15
04/12/2021 17:3010500.18
04/12/2021 16:3010500.18
04/12/2021 15:3010400.16
04/12/2021 14:3010500.18
04/12/2021 12:3010500.18
04/12/2021 11:3010600.19
04/12/2021 10:3010700.2
04/12/2021 09:3010600.19
04/12/2021 08:3010500.18
04/12/2021 07:3010700.2
04/12/2021 06:3010600.19
04/12/2021 05:3010700.21
04/12/2021 04:3010600.19
04/12/2021 03:3010800.22
04/12/2021 02:3010600.19
04/12/2021 01:3010700.21
04/12/2021 00:3010700.21
04/11/2021 23:3010900.23
04/11/2021 22:3010800.22
04/11/2021 21:3010800.22
04/11/2021 20:3010900.23
04/11/2021 19:3010800.22

Start Stop